createdAt,value
2022-10-21T00:01:49.761Z,12.12
2022-10-21T00:04:16.282Z,12.10
2022-10-21T00:06:42.900Z,12.13
2022-10-21T00:09:09.534Z,12.12
2022-10-21T00:11:36.140Z,12.12
2022-10-21T00:14:03.045Z,12.12
2022-10-21T00:16:29.679Z,12.11
2022-10-21T00:18:56.238Z,12.12
2022-10-21T00:21:23.288Z,12.12
2022-10-21T00:23:50.277Z,12.08
2022-10-21T00:26:18.044Z,12.12
2022-10-21T00:28:44.803Z,12.10
2022-10-21T00:31:13.108Z,12.11
2022-10-21T00:33:39.975Z,12.11
2022-10-21T00:36:14.545Z,12.11
2022-10-21T00:38:43.562Z,12.08
2022-10-21T00:41:10.457Z,12.11
2022-10-21T00:43:58.684Z,12.07
2022-10-21T00:46:40.040Z,12.08
2022-10-21T00:49:14.401Z,12.10
2022-10-21T00:51:41.954Z,12.10
2022-10-21T00:54:09.746Z,12.08
2022-10-21T00:56:36.714Z,12.09
2022-10-21T00:59:05.535Z,12.08
2022-10-21T01:01:32.415Z,12.10
2022-10-21T01:04:01.278Z,12.10
2022-10-21T01:06:28.828Z,12.10
2022-10-21T01:08:57.059Z,12.09
2022-10-21T01:11:25.662Z,12.09
2022-10-21T01:14:13.089Z,12.07
2022-10-21T01:16:50.407Z,12.08
2022-10-21T01:19:53.465Z,12.06
2022-10-21T01:22:44.444Z,12.06
2022-10-21T01:25:45.221Z,12.06
2022-10-21T01:28:29.639Z,12.06
2022-10-21T01:31:00.374Z,12.02
2022-10-21T01:33:38.205Z,12.04
2022-10-21T01:36:13.291Z,12.07
2022-10-21T01:38:54.603Z,12.06
2022-10-21T01:41:28.627Z,12.07
2022-10-21T01:44:13.786Z,12.06
2022-10-21T01:46:51.504Z,12.06
2022-10-21T01:49:31.639Z,12.02
2022-10-21T01:52:00.560Z,12.06
2022-10-21T01:54:32.479Z,12.04
2022-10-21T01:57:00.957Z,12.06
2022-10-21T01:59:30.639Z,12.05
2022-10-21T02:02:00.175Z,12.02
2022-10-21T02:04:28.967Z,12.01
2022-10-21T02:06:55.576Z,12.03
2022-10-21T02:09:22.244Z,12.02
2022-10-21T02:11:51.830Z,12.00
2022-10-21T02:14:45.078Z,11.98
2022-10-21T02:17:15.137Z,11.97
2022-10-21T02:19:42.020Z,11.97
2022-10-21T02:22:11.984Z,11.98
2022-10-21T02:24:42.381Z,11.98
2022-10-21T02:27:08.970Z,11.95
2022-10-21T02:29:40.112Z,11.98
2022-10-21T02:32:20.476Z,11.96
2022-10-21T02:35:08.941Z,11.94
2022-10-21T02:38:04.681Z,11.91
2022-10-21T02:40:43.209Z,11.91
2022-10-21T02:43:15.518Z,11.93
2022-10-21T02:45:42.280Z,11.93
2022-10-21T02:48:08.769Z,11.91
2022-10-21T02:50:35.384Z,11.92
2022-10-21T02:53:02.118Z,11.90
2022-10-21T02:55:28.636Z,11.90
2022-10-21T02:57:55.147Z,11.89
2022-10-21T03:00:21.736Z,11.90
2022-10-21T03:02:48.394Z,11.90
2022-10-21T03:05:15.086Z,11.85
2022-10-21T03:07:41.802Z,11.86
2022-10-21T03:10:08.723Z,11.83
2022-10-21T03:12:35.264Z,11.88
2022-10-21T03:15:01.889Z,11.87
2022-10-21T03:17:28.378Z,11.87
2022-10-21T03:19:54.945Z,11.87
2022-10-21T03:22:21.551Z,11.85
2022-10-21T03:24:48.092Z,11.81
2022-10-21T03:27:14.661Z,11.83
2022-10-21T03:29:41.154Z,11.80
2022-10-21T03:32:07.698Z,11.80
2022-10-21T03:34:34.254Z,11.82
2022-10-21T03:37:00.809Z,11.84
2022-10-21T03:39:27.401Z,11.78
2022-10-21T03:41:53.962Z,11.82
2022-10-21T03:44:20.470Z,11.83
2022-10-21T03:46:47.059Z,11.82
2022-10-21T03:49:19.984Z,11.81
2022-10-21T03:51:47.901Z,11.77
2022-10-21T03:54:14.686Z,11.78
2022-10-21T03:56:41.250Z,11.65
2022-10-21T03:59:07.752Z,11.75
2022-10-21T04:01:34.370Z,11.78
2022-10-21T04:04:01.003Z,11.76
2022-10-21T04:06:27.572Z,11.77
2022-10-21T04:08:54.368Z,11.78
2022-10-21T04:11:20.974Z,11.78
2022-10-21T04:13:47.466Z,11.78
2022-10-21T04:16:17.550Z,11.77
2022-10-21T04:18:44.113Z,11.74
2022-10-21T04:21:11.183Z,11.74
2022-10-21T04:23:38.101Z,11.75
2022-10-21T04:26:05.551Z,11.76
2022-10-21T04:28:32.911Z,11.74
2022-10-21T04:30:59.477Z,11.74
2022-10-21T04:33:26.560Z,11.72
2022-10-21T04:35:58.827Z,11.69
2022-10-21T04:38:25.654Z,11.72
2022-10-21T04:40:59.817Z,11.72
2022-10-21T04:43:26.844Z,11.65
2022-10-21T04:45:54.165Z,11.63
2022-10-21T04:48:21.801Z,11.64
2022-10-21T04:50:52.799Z,11.66
2022-10-21T04:53:19.757Z,11.65
2022-10-21T04:55:53.003Z,11.66
2022-10-21T04:58:22.064Z,11.63
2022-10-21T05:00:50.438Z,11.64
2022-10-21T05:03:17.456Z,11.64
2022-10-21T05:05:44.118Z,11.63
2022-10-21T05:08:11.755Z,11.60
2022-10-21T05:10:38.595Z,11.62
2022-10-21T05:13:06.110Z,11.61
2022-10-21T05:15:33.681Z,11.60
2022-10-21T05:18:00.387Z,11.60
2022-10-21T05:20:26.954Z,11.57
2022-10-21T05:22:53.766Z,11.59
2022-10-21T05:25:20.871Z,11.57
2022-10-21T05:27:47.631Z,11.57
2022-10-21T05:30:14.366Z,11.59
2022-10-21T05:32:41.848Z,11.56
2022-10-21T05:35:08.790Z,11.57
2022-10-21T05:37:35.305Z,11.57
2022-10-21T05:40:02.122Z,11.55
2022-10-21T05:42:28.713Z,11.56
2022-10-21T05:44:55.239Z,11.54
2022-10-21T05:47:23.762Z,11.53
2022-10-21T05:49:50.769Z,11.53
2022-10-21T05:52:17.426Z,11.49
2022-10-21T05:54:44.021Z,11.52
2022-10-21T05:57:10.532Z,11.49
2022-10-21T05:59:37.081Z,11.47
2022-10-21T06:02:03.611Z,11.49
2022-10-21T06:04:31.337Z,11.50
2022-10-21T06:06:59.387Z,11.49
2022-10-21T06:09:26.000Z,11.46
2022-10-21T06:11:52.634Z,11.47
2022-10-21T06:14:20.381Z,11.44
2022-10-21T06:16:46.922Z,11.48
2022-10-21T06:19:13.534Z,11.47
2022-10-21T06:21:40.031Z,11.47
2022-10-21T06:24:06.544Z,11.44
2022-10-21T06:26:36.048Z,11.47
2022-10-21T06:29:03.833Z,11.44
2022-10-21T06:31:30.509Z,11.46
2022-10-21T06:33:57.161Z,11.48
2022-10-21T06:36:23.735Z,11.47
2022-10-21T06:38:50.282Z,11.48
2022-10-21T06:41:18.063Z,11.49
2022-10-21T06:43:44.698Z,11.48
2022-10-21T06:46:14.392Z,11.49
2022-10-21T06:48:41.503Z,11.50
2022-10-21T06:51:11.930Z,11.46
2022-10-21T06:53:39.413Z,11.50
2022-10-21T06:56:11.788Z,11.52
2022-10-21T06:58:43.149Z,11.49
2022-10-21T07:01:27.261Z,11.49
2022-10-21T07:03:59.032Z,11.50
2022-10-21T07:06:25.728Z,11.50
2022-10-21T07:08:59.533Z,11.50
2022-10-21T07:11:27.545Z,11.52
2022-10-21T07:13:54.113Z,11.50
2022-10-21T07:16:29.795Z,11.52
2022-10-21T07:18:56.668Z,11.54
2022-10-21T07:21:25.957Z,11.55
2022-10-21T07:23:56.490Z,11.56
2022-10-21T07:26:27.207Z,11.55
2022-10-21T07:28:55.498Z,11.55
2022-10-21T07:31:22.045Z,11.57
2022-10-21T07:33:49.154Z,11.59
2022-10-21T07:36:19.997Z,11.59
2022-10-21T07:38:48.067Z,11.62
2022-10-21T07:41:26.949Z,11.62
2022-10-21T07:43:54.272Z,11.65
2022-10-21T07:46:21.873Z,11.66
2022-10-21T07:48:49.002Z,11.69
2022-10-21T07:51:19.250Z,11.69
2022-10-21T07:53:45.986Z,11.68
2022-10-21T07:56:16.698Z,11.75
2022-10-21T07:58:43.899Z,11.76
2022-10-21T08:01:11.249Z,11.75
2022-10-21T08:03:38.870Z,11.79
2022-10-21T08:06:06.776Z,11.81
2022-10-21T08:08:34.120Z,11.83
2022-10-21T08:11:01.535Z,11.85
2022-10-21T08:13:28.318Z,11.87
2022-10-21T08:15:56.812Z,11.90
2022-10-21T08:18:24.482Z,11.90
2022-10-21T08:20:50.904Z,11.93
2022-10-21T08:23:20.298Z,11.91
2022-10-21T08:25:55.846Z,11.95
2022-10-21T08:28:24.938Z,11.98
2022-10-21T08:30:51.721Z,12.00
2022-10-21T08:33:18.238Z,12.01
2022-10-21T08:35:44.975Z,12.03
2022-10-21T08:38:11.794Z,12.06
2022-10-21T08:40:41.541Z,12.07
2022-10-21T08:43:10.264Z,12.09
2022-10-21T08:45:48.337Z,12.10
2022-10-21T08:48:21.894Z,12.14
2022-10-21T08:50:50.811Z,12.12
2022-10-21T08:53:35.161Z,12.15
2022-10-21T08:56:06.429Z,12.16
2022-10-21T08:58:32.971Z,12.20
2022-10-21T09:01:12.386Z,12.19
2022-10-21T09:03:47.036Z,12.23
2022-10-21T09:06:21.325Z,12.25
2022-10-21T09:09:12.094Z,12.26
2022-10-21T09:11:41.526Z,12.28
2022-10-21T09:14:27.458Z,12.30
2022-10-21T09:17:21.745Z,12.32
2022-10-21T09:20:01.734Z,12.33
2022-10-21T09:23:03.886Z,12.35
2022-10-21T09:25:30.219Z,12.38
2022-10-21T09:27:57.306Z,12.40
2022-10-21T09:30:24.941Z,12.44
2022-10-21T09:32:56.898Z,12.46
2022-10-21T09:35:36.334Z,12.48
2022-10-21T09:38:29.082Z,12.49
2022-10-21T09:41:03.595Z,12.51
2022-10-21T09:43:30.710Z,12.53
2022-10-21T09:45:57.974Z,12.58
2022-10-21T09:51:40.111Z,12.63
2022-10-21T09:54:11.623Z,12.65
2022-10-21T09:56:46.601Z,12.66
2022-10-21T09:59:14.901Z,12.70
2022-10-21T10:01:43.410Z,12.73
2022-10-21T10:04:21.023Z,12.76
2022-10-21T10:06:47.665Z,12.80
2022-10-21T10:09:25.504Z,12.83
2022-10-21T10:12:00.365Z,12.85
2022-10-21T10:14:31.463Z,12.88
2022-10-21T10:17:18.471Z,12.91
2022-10-21T10:20:04.948Z,12.92
2022-10-21T10:22:38.176Z,12.94
2022-10-21T10:25:22.733Z,12.97
2022-10-21T10:27:53.759Z,13.01
2022-10-21T10:30:22.560Z,13.04
2022-10-21T10:32:52.226Z,13.05
2022-10-21T10:35:30.840Z,13.09
2022-10-21T10:37:59.085Z,13.13
2022-10-21T10:40:42.135Z,13.15
2022-10-21T10:43:26.558Z,13.17
2022-10-21T10:46:00.353Z,13.16
2022-10-21T10:48:38.543Z,13.18
2022-10-21T10:51:23.125Z,13.22
2022-10-21T10:54:17.777Z,13.26
2022-10-21T10:56:55.962Z,13.29
2022-10-21T10:59:40.706Z,13.33
2022-10-21T11:02:10.111Z,13.36
2022-10-21T11:04:45.930Z,13.38
2022-10-21T11:07:25.614Z,13.42
2022-10-21T11:09:56.725Z,13.44
2022-10-21T11:12:26.452Z,13.47
2022-10-21T11:14:58.439Z,13.49
2022-10-21T11:18:00.513Z,13.50
2022-10-21T11:20:42.520Z,13.55
2022-10-21T11:23:39.831Z,13.54
2022-10-21T11:26:19.618Z,13.57
2022-10-21T11:29:01.376Z,13.61
2022-10-21T11:32:09.697Z,13.65
2022-10-21T11:35:00.986Z,13.67
2022-10-21T11:37:46.408Z,13.71
2022-10-21T11:40:33.417Z,13.74
2022-10-21T11:43:28.470Z,13.77
2022-10-21T11:45:58.456Z,13.81
2022-10-21T11:48:41.703Z,13.85
2022-10-21T11:51:24.604Z,13.84
2022-10-21T11:54:24.842Z,13.92
2022-10-21T11:57:04.293Z,13.95
2022-10-21T11:59:53.197Z,13.98
2022-10-21T12:02:30.191Z,14.01
2022-10-21T12:05:06.059Z,14.05
2022-10-21T12:07:43.398Z,14.11
2022-10-21T12:10:27.267Z,14.13
2022-10-21T12:12:57.378Z,14.14
2022-10-21T12:15:43.351Z,14.22
2022-10-21T12:18:15.882Z,14.25
2022-10-21T12:20:45.196Z,14.29
2022-10-21T12:23:15.674Z,14.32
2022-10-21T12:26:00.396Z,14.37
2022-10-21T12:28:36.363Z,14.37
2022-10-21T12:31:33.819Z,14.41
2022-10-21T12:34:02.383Z,14.46
2022-10-21T12:36:44.402Z,14.49
2022-10-21T12:39:18.668Z,14.52
2022-10-21T12:41:47.663Z,14.56
2022-10-21T12:44:22.393Z,14.59
2022-10-21T12:46:52.723Z,14.63
2022-10-21T12:49:19.186Z,14.67
2022-10-21T12:51:57.123Z,14.70
2022-10-21T12:54:30.406Z,14.73
2022-10-21T12:57:06.437Z,14.75
2022-10-21T12:59:36.425Z,14.81
2022-10-21T13:02:05.908Z,14.84
2022-10-21T13:04:32.236Z,14.86
2022-10-21T13:07:17.005Z,14.88
2022-10-21T13:10:05.973Z,14.91
2022-10-21T13:12:33.436Z,14.96
2022-10-21T13:15:22.470Z,14.98
2022-10-21T13:17:57.621Z,15.01
2022-10-21T13:20:24.133Z,15.06
2022-10-21T13:23:01.888Z,15.08
2022-10-21T13:25:32.572Z,15.09
2022-10-21T13:28:14.215Z,15.13
2022-10-21T13:30:58.440Z,15.16
2022-10-21T13:33:27.726Z,15.19
2022-10-21T13:36:01.359Z,15.22
2022-10-21T13:38:33.955Z,15.26
2022-10-21T13:41:07.295Z,15.27
2022-10-21T13:43:40.026Z,15.30
2022-10-21T13:46:31.074Z,15.31
2022-10-21T13:49:00.742Z,15.35
2022-10-21T13:51:41.036Z,15.37
2022-10-21T13:54:13.225Z,15.41
2022-10-21T13:56:40.667Z,15.44
2022-10-21T13:59:21.225Z,15.46
2022-10-21T14:01:53.068Z,15.48
2022-10-21T14:04:25.809Z,15.48
2022-10-21T14:06:58.497Z,15.52
2022-10-21T14:09:32.897Z,15.53
2022-10-21T14:12:04.287Z,15.55
2022-10-21T14:14:33.331Z,15.57
2022-10-21T14:17:02.619Z,15.58
2022-10-21T14:19:32.590Z,15.61
2022-10-21T14:22:01.171Z,15.63
2022-10-21T14:24:37.585Z,15.64
2022-10-21T14:27:05.074Z,15.66
2022-10-21T14:29:33.867Z,15.68
2022-10-21T14:32:01.379Z,15.68
2022-10-21T14:34:33.493Z,15.72
2022-10-21T14:37:11.156Z,15.73
2022-10-21T14:39:39.467Z,15.75
2022-10-21T14:42:12.043Z,15.78
2022-10-21T14:44:41.426Z,15.78
2022-10-21T14:47:17.798Z,15.79
2022-10-21T14:49:49.650Z,15.80
2022-10-21T14:52:22.004Z,15.83
2022-10-21T14:54:57.409Z,15.85
2022-10-21T14:57:42.517Z,15.81
2022-10-21T15:00:20.123Z,15.85
2022-10-21T15:02:46.754Z,15.88
2022-10-21T15:05:38.568Z,15.83
2022-10-21T15:08:28.792Z,15.87
2022-10-21T15:10:58.623Z,15.90
2022-10-21T15:13:26.812Z,15.90
2022-10-21T15:15:57.469Z,15.93
2022-10-21T15:18:34.063Z,15.92
2022-10-21T15:21:03.197Z,15.96
2022-10-21T15:23:34.199Z,15.95
2022-10-21T15:26:05.737Z,15.98
2022-10-21T15:28:34.234Z,15.97
2022-10-21T15:31:02.588Z,15.98
2022-10-21T15:33:29.756Z,16.00
2022-10-21T15:36:04.673Z,15.97
2022-10-21T15:38:31.172Z,15.99
2022-10-21T15:40:57.948Z,16.01
2022-10-21T15:43:25.245Z,16.02
2022-10-21T15:45:51.822Z,16.01
2022-10-21T15:48:18.234Z,16.04
2022-10-21T15:50:44.748Z,16.03
2022-10-21T15:53:11.561Z,16.00
2022-10-21T15:55:38.647Z,16.03
2022-10-21T15:58:06.076Z,16.04
2022-10-21T16:00:38.527Z,16.02
2022-10-21T16:03:07.577Z,16.05
2022-10-21T16:05:34.273Z,16.03
2022-10-21T16:08:00.833Z,16.04
2022-10-21T16:10:31.142Z,16.06
2022-10-21T16:12:58.046Z,16.06
2022-10-21T16:15:25.174Z,16.04
2022-10-21T16:17:54.632Z,16.07
2022-10-21T16:20:29.155Z,16.04
2022-10-21T16:22:59.228Z,16.02
2022-10-21T16:25:28.647Z,16.06
2022-10-21T16:27:56.543Z,16.08
2022-10-21T16:30:32.273Z,16.07
2022-10-21T16:32:58.757Z,16.04
2022-10-21T16:35:26.219Z,16.08
2022-10-21T16:37:52.799Z,16.03
2022-10-21T16:40:35.295Z,16.03
2022-10-21T16:43:01.830Z,16.08
2022-10-21T16:45:30.551Z,16.04
2022-10-21T16:47:59.978Z,16.08
2022-10-21T16:50:40.828Z,16.08
2022-10-21T16:53:16.899Z,16.06
2022-10-21T16:55:43.756Z,16.04
2022-10-21T16:58:10.146Z,16.08
2022-10-21T17:00:36.608Z,16.06
2022-10-21T17:03:03.740Z,16.08
2022-10-21T17:05:30.388Z,16.07
2022-10-21T17:07:58.466Z,16.07
2022-10-21T17:10:24.856Z,16.09
2022-10-21T17:12:56.991Z,16.09
2022-10-21T17:15:23.422Z,16.07
2022-10-21T17:17:49.826Z,16.03
2022-10-21T17:20:16.330Z,16.05
2022-10-21T17:22:42.808Z,16.09
2022-10-21T17:25:12.885Z,16.09
2022-10-21T17:27:39.916Z,16.08
2022-10-21T17:30:07.237Z,16.06
2022-10-21T17:32:33.725Z,16.09
2022-10-21T17:35:00.197Z,16.08
2022-10-21T17:37:26.650Z,16.07
2022-10-21T17:39:53.045Z,16.08
2022-10-21T17:42:19.566Z,16.06
2022-10-21T17:44:46.015Z,16.09
2022-10-21T17:47:14.786Z,16.10
2022-10-21T17:49:41.769Z,16.07
2022-10-21T17:52:08.930Z,16.09
2022-10-21T17:54:36.325Z,16.10
2022-10-21T17:57:03.545Z,16.10
2022-10-21T17:59:32.569Z,16.09
2022-10-21T18:01:59.628Z,16.09
2022-10-21T18:04:26.163Z,16.07
2022-10-21T18:06:52.589Z,16.07
2022-10-21T18:09:19.254Z,16.10
2022-10-21T18:11:45.805Z,16.10
2022-10-21T18:14:12.710Z,16.09
2022-10-21T18:16:39.150Z,16.07
2022-10-21T18:19:05.578Z,16.06
2022-10-21T18:21:32.155Z,16.08
2022-10-21T18:23:58.572Z,16.09
2022-10-21T18:26:27.469Z,16.07
2022-10-21T18:28:59.605Z,16.08
2022-10-21T18:31:29.682Z,16.07
2022-10-21T18:33:58.013Z,16.04
2022-10-21T18:36:24.605Z,16.07
2022-10-21T18:38:51.269Z,16.07
2022-10-21T18:41:20.969Z,16.09
2022-10-21T18:43:53.156Z,16.07
2022-10-21T18:46:20.446Z,16.07
2022-10-21T18:48:47.453Z,16.08
2022-10-21T18:51:18.883Z,16.08
2022-10-21T18:53:49.877Z,16.07
2022-10-21T18:56:18.167Z,16.06
2022-10-21T18:58:44.823Z,16.04
2022-10-21T19:01:12.122Z,16.06
2022-10-21T19:03:38.681Z,16.06
2022-10-21T19:06:19.234Z,16.04
2022-10-21T19:08:47.011Z,16.06
2022-10-21T19:11:13.495Z,16.06
2022-10-21T19:13:39.958Z,16.00
2022-10-21T19:16:06.966Z,16.04
2022-10-21T19:18:33.389Z,16.02
2022-10-21T19:20:59.758Z,16.01
2022-10-21T19:23:27.660Z,16.00
2022-10-21T19:25:54.102Z,16.04
2022-10-21T19:28:20.774Z,15.99
2022-10-21T19:30:47.226Z,16.01
2022-10-21T19:33:13.642Z,15.99
2022-10-21T19:35:40.039Z,16.00
2022-10-21T19:38:11.619Z,15.99
2022-10-21T19:40:46.826Z,16.02
2022-10-21T19:43:13.213Z,15.99
2022-10-21T19:45:39.636Z,16.01
2022-10-21T19:48:07.043Z,15.99
2022-10-21T19:50:33.526Z,16.00
2022-10-21T19:52:59.917Z,16.01
2022-10-21T19:55:37.460Z,16.00
2022-10-21T19:58:07.394Z,15.99
2022-10-21T20:00:37.059Z,15.98
2022-10-21T20:03:05.646Z,15.99
2022-10-21T20:05:39.013Z,15.97
2022-10-21T20:08:08.489Z,15.97
2022-10-21T20:10:38.034Z,15.98
2022-10-21T20:13:08.689Z,15.97
2022-10-21T20:15:39.538Z,15.97
2022-10-21T20:18:10.367Z,15.98
2022-10-21T20:20:44.066Z,15.92
2022-10-21T20:23:14.380Z,15.91
2022-10-21T20:26:02.157Z,15.93
2022-10-21T20:28:31.591Z,15.94
2022-10-21T20:31:10.861Z,15.94
2022-10-21T20:33:44.279Z,15.93
2022-10-21T20:36:21.086Z,15.92
2022-10-21T20:38:52.026Z,15.88
2022-10-21T20:41:24.621Z,15.91
2022-10-21T20:43:56.421Z,15.90
2022-10-21T20:46:28.573Z,15.89
2022-10-21T20:48:59.784Z,15.86
2022-10-21T20:51:32.303Z,15.78
2022-10-21T20:54:05.934Z,15.87
2022-10-21T20:56:38.394Z,15.85
2022-10-21T20:59:10.409Z,15.82
2022-10-21T21:01:44.577Z,15.80
2022-10-21T21:04:17.409Z,15.82
2022-10-21T21:06:50.043Z,15.79
2022-10-21T21:09:38.108Z,15.79
2022-10-21T21:12:07.672Z,15.78
2022-10-21T21:14:34.480Z,15.75
2022-10-21T21:17:01.164Z,15.72
2022-10-21T21:19:27.786Z,15.73
2022-10-21T21:21:54.444Z,15.72
2022-10-21T21:24:21.136Z,15.69
2022-10-21T21:26:47.807Z,15.66
2022-10-21T21:29:14.743Z,15.70
2022-10-21T21:31:42.579Z,15.67
2022-10-21T21:34:09.873Z,15.65
2022-10-21T21:36:36.939Z,15.63
2022-10-21T21:39:05.048Z,15.62
2022-10-21T21:41:31.610Z,15.63
2022-10-21T21:43:58.356Z,15.64
2022-10-21T21:46:25.911Z,15.61
2022-10-21T21:48:56.024Z,15.62
2022-10-21T21:51:27.381Z,15.61
2022-10-21T21:53:55.399Z,15.61
2022-10-21T21:56:23.100Z,15.60
2022-10-21T21:58:51.636Z,15.59
2022-10-21T22:01:20.613Z,15.60
2022-10-21T22:03:49.235Z,15.60
2022-10-21T22:06:18.152Z,15.60
2022-10-21T22:08:45.578Z,15.58
2022-10-21T22:11:14.804Z,15.57
2022-10-21T22:13:41.721Z,15.60
2022-10-21T22:16:10.420Z,15.60
2022-10-21T22:18:37.454Z,15.59
2022-10-21T22:21:09.482Z,15.60
2022-10-21T22:23:37.235Z,15.59
2022-10-21T22:26:04.527Z,15.58
2022-10-21T22:28:31.376Z,15.59
2022-10-21T22:31:01.466Z,15.60
2022-10-21T22:33:29.287Z,15.58
2022-10-21T22:35:56.443Z,15.56
2022-10-21T22:38:23.209Z,15.58
2022-10-21T22:40:58.956Z,15.58
2022-10-21T22:43:26.960Z,15.58
2022-10-21T22:46:01.196Z,15.59
2022-10-21T22:48:40.759Z,15.57
2022-10-21T22:51:07.342Z,15.57
2022-10-21T22:53:35.327Z,15.55
2022-10-21T22:56:01.905Z,15.55
2022-10-21T22:58:28.612Z,15.57
2022-10-21T23:03:26.724Z,15.55
2022-10-21T23:05:53.152Z,15.53
2022-10-21T23:08:20.437Z,15.54
2022-10-21T23:10:48.875Z,15.56
2022-10-21T23:13:15.446Z,15.53
2022-10-21T23:15:42.006Z,15.54
2022-10-21T23:18:08.643Z,15.53
2022-10-21T23:20:35.260Z,15.52
2022-10-21T23:23:01.818Z,15.53
2022-10-21T23:25:28.521Z,15.55
2022-10-21T23:27:55.331Z,15.52
2022-10-21T23:30:23.758Z,15.52
2022-10-21T23:32:50.451Z,15.50
2022-10-21T23:35:17.718Z,15.54
2022-10-21T23:37:44.469Z,15.53
2022-10-21T23:40:12.269Z,15.54
2022-10-21T23:42:42.725Z,15.53
2022-10-21T23:45:11.086Z,15.52
2022-10-21T23:47:39.120Z,15.53
2022-10-21T23:50:07.267Z,15.52
2022-10-21T23:52:33.736Z,15.52
2022-10-21T23:55:00.231Z,15.52
2022-10-21T23:57:26.859Z,15.52
2022-10-21T23:59:53.422Z,15.51
